createdAt,value
2022-09-22T00:01:36.621Z,100392.91
2022-09-22T00:04:08.504Z,100397.50
2022-09-22T00:06:40.073Z,100386.16
2022-09-22T00:09:10.354Z,100392.63
2022-09-22T00:11:40.516Z,100378.28
2022-09-22T00:14:11.001Z,100382.56
2022-09-22T00:16:41.160Z,100380.31
2022-09-22T00:19:12.272Z,100378.44
2022-09-22T00:21:40.581Z,100382.19
2022-09-22T00:24:09.390Z,100385.03
2022-09-22T00:26:39.328Z,100381.69
2022-09-22T00:29:09.955Z,100386.09
2022-09-22T00:31:39.532Z,100376.63
2022-09-22T00:34:08.458Z,100373.00
2022-09-22T00:36:38.114Z,100382.44
2022-09-22T00:39:06.295Z,100376.41
2022-09-22T00:41:40.657Z,100385.06
2022-09-22T00:44:36.582Z,100375.56
2022-09-22T00:47:24.886Z,100390.56
2022-09-22T00:49:56.567Z,100384.59
2022-09-22T00:52:30.197Z,100376.19
2022-09-22T00:55:02.298Z,100385.81
2022-09-22T00:57:33.113Z,100383.41
2022-09-22T01:00:03.094Z,100397.69
2022-09-22T01:02:31.247Z,100386.66
2022-09-22T01:04:59.559Z,100380.66
2022-09-22T01:07:31.544Z,100386.81
2022-09-22T01:10:00.172Z,100383.59
2022-09-22T01:12:30.964Z,100382.81
2022-09-22T01:15:27.436Z,100385.56
2022-09-22T01:18:08.302Z,100377.22
2022-09-22T01:21:20.578Z,100378.75
2022-09-22T01:24:27.259Z,100381.06
2022-09-22T01:27:21.638Z,100391.47
2022-09-22T01:30:11.519Z,100383.72
2022-09-22T01:32:50.077Z,100396.59
2022-09-22T01:35:25.758Z,100397.22
2022-09-22T01:38:05.684Z,100392.94
2022-09-22T01:40:42.829Z,100403.16
2022-09-22T01:43:18.386Z,100398.03
2022-09-22T01:45:49.645Z,100396.19
2022-09-22T01:48:22.308Z,100388.25
2022-09-22T01:50:55.369Z,100385.38
2022-09-22T01:53:27.918Z,100393.50
2022-09-22T01:55:59.852Z,100392.72
2022-09-22T01:58:33.679Z,100387.56
2022-09-22T02:01:13.630Z,100394.50
2022-09-22T02:03:47.166Z,100390.34
2022-09-22T02:06:20.166Z,100387.97
2022-09-22T02:08:54.534Z,100386.00
2022-09-22T02:11:23.673Z,100383.00
2022-09-22T02:13:52.562Z,100379.03
2022-09-22T02:16:25.442Z,100378.44
2022-09-22T02:18:57.023Z,100383.19
2022-09-22T02:21:27.956Z,100384.88
2022-09-22T02:23:56.540Z,100384.56
2022-09-22T02:26:27.730Z,100386.38
2022-09-22T02:28:59.771Z,100383.78
2022-09-22T02:31:33.304Z,100387.97
2022-09-22T02:34:02.234Z,100395.50
2022-09-22T02:36:52.034Z,100396.09
2022-09-22T02:39:26.043Z,100389.44
2022-09-22T02:42:16.779Z,100392.25
2022-09-22T02:44:49.576Z,100397.19
2022-09-22T02:47:28.024Z,100393.13
2022-09-22T02:49:58.379Z,100386.16
2022-09-22T02:52:26.902Z,100382.56
2022-09-22T02:54:55.801Z,100390.31
2022-09-22T02:57:24.118Z,100393.91
2022-09-22T02:59:53.675Z,100386.00
2022-09-22T03:02:23.725Z,100386.78
2022-09-22T03:04:52.038Z,100392.13
2022-09-22T03:07:20.581Z,100387.56
2022-09-22T03:09:48.772Z,100388.25
2022-09-22T03:12:16.975Z,100395.66
2022-09-22T03:14:45.161Z,100397.25
2022-09-22T03:17:13.263Z,100394.16
2022-09-22T03:19:43.044Z,100392.03
2022-09-22T03:22:11.665Z,100391.84
2022-09-22T03:24:39.942Z,100379.75
2022-09-22T03:27:08.140Z,100383.94
2022-09-22T03:29:36.226Z,100384.72
2022-09-22T03:32:04.572Z,100381.19
2022-09-22T03:34:32.693Z,100375.41
2022-09-22T03:37:02.254Z,100377.25
2022-09-22T03:39:30.426Z,100383.63
2022-09-22T03:41:58.676Z,100389.41
2022-09-22T03:44:27.234Z,100385.88
2022-09-22T03:46:55.368Z,100381.84
2022-09-22T03:49:23.489Z,100388.00
2022-09-22T03:51:51.779Z,100393.75
2022-09-22T03:54:21.657Z,100394.56
2022-09-22T03:56:49.957Z,100389.22
2022-09-22T03:59:18.607Z,100396.75
2022-09-22T04:01:46.835Z,100395.19
2022-09-22T04:04:15.027Z,100408.16
2022-09-22T04:06:43.852Z,100404.88
2022-09-22T04:09:12.059Z,100406.97
2022-09-22T04:11:41.549Z,100406.78
2022-09-22T04:14:10.119Z,100415.59
2022-09-22T04:16:43.162Z,100420.84
2022-09-22T04:19:11.334Z,100415.28
2022-09-22T04:21:39.600Z,100417.38
2022-09-22T04:24:08.463Z,100410.84
2022-09-22T04:26:36.581Z,100416.66
2022-09-22T04:29:06.089Z,100409.47
2022-09-22T04:31:34.226Z,100406.97
2022-09-22T04:34:06.919Z,100401.00
2022-09-22T04:36:35.878Z,100404.69
2022-09-22T04:39:04.217Z,100404.41
2022-09-22T04:41:32.460Z,100409.03
2022-09-22T04:44:00.785Z,100410.03
2022-09-22T04:46:30.380Z,100418.38
2022-09-22T04:48:58.682Z,100416.00
2022-09-22T04:51:27.615Z,100422.59
2022-09-22T04:53:55.732Z,100427.06
2022-09-22T04:56:23.862Z,100417.94
2022-09-22T04:58:51.926Z,100422.31
2022-09-22T05:01:20.182Z,100414.56
2022-09-22T05:03:49.891Z,100418.59
2022-09-22T05:06:17.983Z,100427.13
2022-09-22T05:08:46.119Z,100432.84
2022-09-22T05:11:14.683Z,100429.34
2022-09-22T05:13:42.916Z,100435.50
2022-09-22T05:16:11.384Z,100438.44
2022-09-22T05:18:39.827Z,100433.44
2022-09-22T05:21:09.465Z,100437.03
2022-09-22T05:23:37.751Z,100446.53
2022-09-22T05:26:06.813Z,100459.84
2022-09-22T05:28:34.991Z,100458.81
2022-09-22T05:31:03.216Z,100466.44
2022-09-22T05:33:31.948Z,100458.66
2022-09-22T05:36:00.150Z,100457.06
2022-09-22T05:38:29.897Z,100458.50
2022-09-22T05:40:58.087Z,100463.38
2022-09-22T05:43:26.201Z,100473.19
2022-09-22T05:45:54.564Z,100472.09
2022-09-22T05:48:27.528Z,100474.16
2022-09-22T05:50:58.917Z,100474.88
2022-09-22T05:53:27.665Z,100479.47
2022-09-22T05:56:00.210Z,100479.91
2022-09-22T05:58:28.384Z,100484.31
2022-09-22T06:00:58.910Z,100484.38
2022-09-22T06:03:27.508Z,100486.03
2022-09-22T06:05:55.651Z,100484.53
2022-09-22T06:08:27.405Z,100480.09
2022-09-22T06:10:57.223Z,100475.41
2022-09-22T06:13:25.702Z,100478.91
2022-09-22T06:15:53.909Z,100477.47
2022-09-22T06:18:24.941Z,100466.88
2022-09-22T06:20:56.517Z,100464.25
2022-09-22T06:23:25.964Z,100459.69
2022-09-22T06:25:59.423Z,100466.94
2022-09-22T06:28:27.792Z,100465.47
2022-09-22T06:31:00.006Z,100469.63
2022-09-22T06:33:28.437Z,100473.56
2022-09-22T06:35:58.172Z,100475.28
2022-09-22T06:38:26.351Z,100472.25
2022-09-22T06:41:00.765Z,100474.66
2022-09-22T06:43:30.344Z,100479.44
2022-09-22T06:46:01.713Z,100484.09
2022-09-22T06:48:29.840Z,100485.53
2022-09-22T06:50:57.977Z,100486.88
2022-09-22T06:53:27.603Z,100490.22
2022-09-22T06:55:56.107Z,100486.41
2022-09-22T06:58:25.391Z,100485.97
2022-09-22T07:00:56.123Z,100491.41
2022-09-22T07:03:26.468Z,100496.53
2022-09-22T07:05:56.594Z,100498.72
2022-09-22T07:08:26.354Z,100502.38
2022-09-22T07:10:56.408Z,100505.94
2022-09-22T07:13:25.090Z,100506.47
2022-09-22T07:15:55.485Z,100516.47
2022-09-22T07:18:23.882Z,100516.22
2022-09-22T07:20:52.314Z,100511.09
2022-09-22T07:23:21.135Z,100514.22
2022-09-22T07:25:54.239Z,100526.47
2022-09-22T07:28:22.685Z,100520.16
2022-09-22T07:30:50.887Z,100525.88
2022-09-22T07:33:21.397Z,100532.47
2022-09-22T07:35:49.535Z,100529.69
2022-09-22T07:38:18.895Z,100526.78
2022-09-22T07:40:54.251Z,100531.84
2022-09-22T07:43:22.360Z,100529.63
2022-09-22T07:45:55.757Z,100534.81
2022-09-22T07:48:37.977Z,100520.50
2022-09-22T07:51:12.859Z,100526.72
2022-09-22T07:53:45.060Z,100516.56
2022-09-22T07:56:15.276Z,100507.44
2022-09-22T07:58:48.378Z,100512.19
2022-09-22T08:01:16.980Z,100514.13
2022-09-22T08:03:47.710Z,100518.78
2022-09-22T08:06:18.518Z,100511.16
2022-09-22T08:08:52.507Z,100502.84
2022-09-22T08:11:22.849Z,100500.38
2022-09-22T08:13:53.462Z,100499.81
2022-09-22T08:16:22.722Z,100497.44
2022-09-22T08:18:56.235Z,100499.78
2022-09-22T08:21:24.509Z,100491.97
2022-09-22T08:23:52.944Z,100496.66
2022-09-22T08:26:22.986Z,100495.63
2022-09-22T08:28:53.178Z,100497.09
2022-09-22T08:31:21.947Z,100500.94
2022-09-22T08:33:52.459Z,100509.09
2022-09-22T08:36:22.902Z,100516.00
2022-09-22T08:38:51.178Z,100510.94
2022-09-22T08:41:26.851Z,100518.81
2022-09-22T08:43:57.572Z,100513.28
2022-09-22T08:46:29.142Z,100507.78
2022-09-22T08:49:19.492Z,100514.00
2022-09-22T08:51:55.086Z,100517.16
2022-09-22T08:54:28.366Z,100509.59
2022-09-22T08:57:25.438Z,100508.13
2022-09-22T08:59:59.664Z,100499.44
2022-09-22T09:02:41.195Z,100501.78
2022-09-22T09:05:54.643Z,100503.97
2022-09-22T09:08:54.964Z,100492.69
2022-09-22T09:11:36.067Z,100504.97
2022-09-22T09:14:16.923Z,100499.78
2022-09-22T09:16:51.329Z,100495.75
2022-09-22T09:19:22.762Z,100498.75
2022-09-22T09:21:54.569Z,100491.03
2022-09-22T09:27:25.685Z,100497.25
2022-09-22T09:30:01.607Z,100507.22
2022-09-22T09:32:39.283Z,100502.66
2022-09-22T09:35:14.565Z,100495.88
2022-09-22T09:37:44.477Z,100505.78
2022-09-22T09:40:18.475Z,100498.97
2022-09-22T09:42:48.763Z,100500.44
2022-09-22T09:45:20.914Z,100494.09
2022-09-22T09:48:14.391Z,100501.19
2022-09-22T09:50:42.540Z,100494.09
2022-09-22T09:53:30.594Z,100502.38
2022-09-22T09:56:00.636Z,100486.84
2022-09-22T09:58:46.420Z,100492.81
2022-09-22T10:01:16.036Z,100486.66
2022-09-22T10:03:47.799Z,100469.97
2022-09-22T10:06:25.417Z,100470.44
2022-09-22T10:08:54.016Z,100477.75
2022-09-22T10:11:33.761Z,100472.59
2022-09-22T10:14:02.275Z,100463.75
2022-09-22T10:16:33.539Z,100473.50
2022-09-22T10:19:19.729Z,100469.13
2022-09-22T10:21:49.036Z,100472.00
2022-09-22T10:24:30.499Z,100473.13
2022-09-22T10:27:03.747Z,100466.03
2022-09-22T10:29:35.638Z,100458.63
2022-09-22T10:32:07.598Z,100464.63
2022-09-22T10:34:37.242Z,100462.94
2022-09-22T10:37:09.578Z,100454.50
2022-09-22T10:39:51.421Z,100462.63
2022-09-22T10:42:34.955Z,100458.78
2022-09-22T10:45:08.141Z,100464.53
2022-09-22T10:47:57.198Z,100450.59
2022-09-22T10:50:47.420Z,100448.75
2022-09-22T10:53:33.255Z,100444.16
2022-09-22T10:56:12.976Z,100435.88
2022-09-22T10:59:07.650Z,100447.97
2022-09-22T11:01:49.001Z,100438.63
2022-09-22T11:04:32.899Z,100427.34
2022-09-22T11:07:42.567Z,100441.19
2022-09-22T11:10:42.275Z,100441.31
2022-09-22T11:13:26.550Z,100435.25
2022-09-22T11:16:27.823Z,100426.13
2022-09-22T11:19:19.277Z,100423.94
2022-09-22T11:22:00.573Z,100427.59
2022-09-22T11:24:45.008Z,100422.34
2022-09-22T11:27:22.181Z,100428.66
2022-09-22T11:30:11.368Z,100436.22
2022-09-22T11:32:57.040Z,100427.56
2022-09-22T11:35:47.470Z,100425.75
2022-09-22T11:38:32.572Z,100424.78
2022-09-22T11:41:23.806Z,100431.53
2022-09-22T11:44:16.945Z,100432.06
2022-09-22T11:47:01.119Z,100417.72
2022-09-22T11:49:49.363Z,100419.03
2022-09-22T11:52:31.781Z,100423.59
2022-09-22T11:55:18.140Z,100423.22
2022-09-22T11:57:51.284Z,100413.59
2022-09-22T12:00:22.471Z,100413.59
2022-09-22T12:03:01.907Z,100421.22
2022-09-22T12:05:38.952Z,100423.03
2022-09-22T12:08:11.999Z,100419.09
2022-09-22T12:10:42.773Z,100429.72
2022-09-22T12:13:16.123Z,100413.03
2022-09-22T12:15:53.738Z,100409.53
2022-09-22T12:18:30.106Z,100403.97
2022-09-22T12:21:04.861Z,100415.84
2022-09-22T12:23:40.182Z,100415.59
2022-09-22T12:26:12.508Z,100411.38
2022-09-22T12:28:43.481Z,100410.97
2022-09-22T12:31:15.314Z,100409.28
2022-09-22T12:33:50.134Z,100416.97
2022-09-22T12:36:30.055Z,100422.72
2022-09-22T12:39:10.142Z,100410.91
2022-09-22T12:41:48.197Z,100422.09
2022-09-22T12:44:23.178Z,100412.84
2022-09-22T12:46:52.313Z,100415.72
2022-09-22T12:49:23.479Z,100400.53
2022-09-22T12:51:53.475Z,100406.63
2022-09-22T12:54:48.582Z,100416.69
2022-09-22T12:57:32.920Z,100413.72
2022-09-22T13:00:35.387Z,100417.88
2022-09-22T13:03:38.312Z,100420.78
2022-09-22T13:06:47.566Z,100416.41
2022-09-22T13:09:25.907Z,100416.41
2022-09-22T13:12:31.142Z,100414.47
2022-09-22T13:15:20.995Z,100420.50
2022-09-22T13:17:51.224Z,100417.66
2022-09-22T13:20:27.210Z,100422.13
2022-09-22T13:22:55.401Z,100422.56
2022-09-22T13:25:27.514Z,100419.44
2022-09-22T13:28:07.206Z,100413.91
2022-09-22T13:30:35.757Z,100420.97
2022-09-22T13:33:03.915Z,100427.97
2022-09-22T13:35:34.808Z,100421.47
2022-09-22T13:38:03.735Z,100427.41
2022-09-22T13:40:35.062Z,100418.44
2022-09-22T13:43:07.551Z,100426.19
2022-09-22T13:45:37.324Z,100421.56
2022-09-22T13:48:09.857Z,100432.44
2022-09-22T13:50:44.529Z,100421.25
2022-09-22T13:53:19.201Z,100432.09
2022-09-22T13:55:51.964Z,100428.50
2022-09-22T13:58:26.318Z,100431.66
2022-09-22T14:01:14.363Z,100436.72
2022-09-22T14:03:43.575Z,100430.69
2022-09-22T14:06:15.663Z,100433.22
2022-09-22T14:08:45.605Z,100423.53
2022-09-22T14:11:18.050Z,100429.97
2022-09-22T14:13:58.946Z,100439.66
2022-09-22T14:16:32.831Z,100433.22
2022-09-22T14:19:06.493Z,100434.34
2022-09-22T14:21:41.937Z,100418.50
2022-09-22T14:24:14.800Z,100429.44
2022-09-22T14:26:49.426Z,100423.53
2022-09-22T14:29:20.550Z,100429.38
2022-09-22T14:31:52.187Z,100434.75
2022-09-22T14:34:26.584Z,100431.56
2022-09-22T14:36:56.293Z,100434.38
2022-09-22T14:39:34.147Z,100435.75
2022-09-22T14:42:12.082Z,100426.50
2022-09-22T14:44:46.187Z,100432.97
2022-09-22T14:47:39.416Z,100431.97
2022-09-22T14:50:11.757Z,100432.72
2022-09-22T14:52:46.734Z,100433.75
2022-09-22T14:55:20.277Z,100434.78
2022-09-22T14:57:51.362Z,100437.06
2022-09-22T15:00:38.533Z,100432.34
2022-09-22T15:03:18.582Z,100432.91
2022-09-22T15:05:46.814Z,100433.81
2022-09-22T15:08:18.819Z,100427.06
2022-09-22T15:10:54.611Z,100424.59
2022-09-22T15:13:39.186Z,100433.31
2022-09-22T15:16:08.340Z,100429.13
2022-09-22T15:18:36.617Z,100441.66
2022-09-22T15:21:12.180Z,100434.69
2022-09-22T15:23:44.867Z,100438.31
2022-09-22T15:26:19.081Z,100438.50
2022-09-22T15:28:51.730Z,100437.63
2022-09-22T15:31:26.646Z,100446.19
2022-09-22T15:33:56.034Z,100430.88
2022-09-22T15:36:25.883Z,100437.63
2022-09-22T15:39:00.011Z,100433.47
2022-09-22T15:41:29.188Z,100441.13
2022-09-22T15:43:59.352Z,100440.56
2022-09-22T15:46:34.104Z,100441.16
2022-09-22T15:49:05.686Z,100448.00
2022-09-22T15:51:34.684Z,100446.31
2022-09-22T15:54:04.025Z,100448.56
2022-09-22T15:56:32.939Z,100452.97
2022-09-22T15:59:02.943Z,100458.38
2022-09-22T16:01:31.185Z,100449.34
2022-09-22T16:04:00.357Z,100447.66
2022-09-22T16:06:28.785Z,100455.66
2022-09-22T16:08:58.560Z,100460.34
2022-09-22T16:11:29.854Z,100458.19
2022-09-22T16:14:00.763Z,100462.34
2022-09-22T16:16:31.219Z,100455.34
2022-09-22T16:19:00.147Z,100460.59
2022-09-22T16:21:30.557Z,100454.06
2022-09-22T16:24:03.605Z,100463.44
2022-09-22T16:26:33.614Z,100458.22
2022-09-22T16:29:03.467Z,100459.13
2022-09-22T16:31:33.777Z,100458.22
2022-09-22T16:34:03.478Z,100461.81
2022-09-22T16:36:34.297Z,100458.91
2022-09-22T16:39:03.198Z,100467.41
2022-09-22T16:41:33.237Z,100464.22
2022-09-22T16:44:02.467Z,100465.84
2022-09-22T16:46:34.430Z,100466.81
2022-09-22T16:49:05.365Z,100467.78
2022-09-22T16:51:35.658Z,100481.53
2022-09-22T16:54:04.570Z,100483.25
2022-09-22T16:56:34.669Z,100486.16
2022-09-22T16:59:03.385Z,100488.69
2022-09-22T17:01:36.624Z,100491.16
2022-09-22T17:04:06.273Z,100495.47
2022-09-22T17:06:36.209Z,100494.88
2022-09-22T17:09:04.872Z,100498.69
2022-09-22T17:11:37.024Z,100502.22
2022-09-22T17:14:12.190Z,100510.00
2022-09-22T17:16:43.131Z,100517.47
2022-09-22T17:19:13.498Z,100516.69
2022-09-22T17:21:41.737Z,100518.00
2022-09-22T17:24:10.317Z,100516.59
2022-09-22T17:26:41.359Z,100525.63
2022-09-22T17:29:10.999Z,100523.75
2022-09-22T17:31:40.180Z,100523.88
2022-09-22T17:34:10.722Z,100527.38
2022-09-22T17:36:39.673Z,100532.13
2022-09-22T17:39:10.460Z,100529.63
2022-09-22T17:41:45.555Z,100526.63
2022-09-22T17:44:17.152Z,100534.88
2022-09-22T17:46:59.027Z,100526.66
2022-09-22T17:49:46.492Z,100532.53
2022-09-22T17:52:33.835Z,100544.91
2022-09-22T17:55:09.718Z,100543.50
2022-09-22T17:57:39.916Z,100541.25
2022-09-22T18:00:10.874Z,100540.66
2022-09-22T18:02:39.259Z,100545.53
2022-09-22T18:05:11.498Z,100548.06
2022-09-22T18:07:40.793Z,100553.94
2022-09-22T18:10:10.672Z,100556.13
2022-09-22T18:12:39.009Z,100552.16
2022-09-22T18:15:08.585Z,100555.44
2022-09-22T18:17:41.774Z,100561.22
2022-09-22T18:20:13.864Z,100556.47
2022-09-22T18:22:42.679Z,100568.41
2022-09-22T18:25:11.721Z,100564.91
2022-09-22T18:27:40.178Z,100566.56
2022-09-22T18:30:11.341Z,100576.16
2022-09-22T18:32:41.464Z,100571.72
2022-09-22T18:35:11.216Z,100571.19
2022-09-22T18:37:39.834Z,100579.06
2022-09-22T18:40:09.340Z,100578.25
2022-09-22T18:42:37.699Z,100583.09
2022-09-22T18:45:06.356Z,100582.41
2022-09-22T18:47:43.339Z,100579.50
2022-09-22T18:50:13.678Z,100579.41
2022-09-22T18:52:45.972Z,100590.47
2022-09-22T18:55:19.145Z,100589.56
2022-09-22T18:57:48.511Z,100586.28
2022-09-22T19:00:20.969Z,100590.91
2022-09-22T19:02:50.405Z,100589.06
2022-09-22T19:05:20.437Z,100588.84
2022-09-22T19:07:48.750Z,100594.44
2022-09-22T19:10:22.016Z,100586.38
2022-09-22T19:12:50.919Z,100583.13
2022-09-22T19:15:20.144Z,100577.31
2022-09-22T19:17:49.971Z,100578.94
2022-09-22T19:20:22.570Z,100577.56
2022-09-22T19:22:52.505Z,100573.44
2022-09-22T19:25:22.505Z,100580.56
2022-09-22T19:27:50.917Z,100571.56
2022-09-22T19:30:22.872Z,100579.94
2022-09-22T19:32:52.198Z,100576.16
2022-09-22T19:35:22.227Z,100573.16
2022-09-22T19:37:51.995Z,100567.06
2022-09-22T19:40:24.749Z,100578.09
2022-09-22T19:42:53.778Z,100578.56
2022-09-22T19:45:22.341Z,100578.75
2022-09-22T19:47:50.413Z,100577.47
2022-09-22T19:50:22.058Z,100584.41
2022-09-22T19:52:50.768Z,100582.19
2022-09-22T19:55:21.141Z,100575.53
2022-09-22T19:57:52.616Z,100578.09
2022-09-22T20:00:26.450Z,100580.06
2022-09-22T20:02:58.778Z,100584.53
2022-09-22T20:05:31.970Z,100582.41
2022-09-22T20:08:00.107Z,100585.09
2022-09-22T20:10:28.921Z,100594.91
2022-09-22T20:12:57.691Z,100587.75
2022-09-22T20:15:26.171Z,100589.84
2022-09-22T20:17:55.665Z,100592.69
2022-09-22T20:20:28.883Z,100589.28
2022-09-22T20:23:00.560Z,100590.88
2022-09-22T20:25:31.973Z,100599.66
2022-09-22T20:28:01.173Z,100604.44
2022-09-22T20:30:29.278Z,100605.00
2022-09-22T20:32:57.419Z,100596.13
2022-09-22T20:35:25.552Z,100594.53
2022-09-22T20:37:57.647Z,100598.56
2022-09-22T20:40:27.073Z,100597.13
2022-09-22T20:42:55.579Z,100592.91
2022-09-22T20:45:24.978Z,100588.97
2022-09-22T20:47:54.974Z,100588.97
2022-09-22T20:50:23.279Z,100589.59
2022-09-22T20:52:51.666Z,100589.91
2022-09-22T20:55:22.277Z,100587.56
2022-09-22T20:57:50.790Z,100584.25
2022-09-22T21:00:18.971Z,100598.31
2022-09-22T21:02:47.470Z,100589.75
2022-09-22T21:05:16.060Z,100595.63
2022-09-22T21:07:44.521Z,100588.50
2022-09-22T21:10:30.333Z,100592.94
2022-09-22T21:13:00.584Z,100589.59
2022-09-22T21:15:30.036Z,100586.75
2022-09-22T21:17:58.570Z,100579.81
2022-09-22T21:20:27.196Z,100580.13
2022-09-22T21:22:55.814Z,100574.59
2022-09-22T21:25:25.165Z,100572.88
2022-09-22T21:27:53.489Z,100572.38
2022-09-22T21:30:23.110Z,100567.94
2022-09-22T21:32:51.419Z,100568.25
2022-09-22T21:35:19.652Z,100564.94
2022-09-22T21:37:47.786Z,100570.09
2022-09-22T21:40:17.883Z,100568.97
2022-09-22T21:42:47.136Z,100573.06
2022-09-22T21:45:15.600Z,100569.28
2022-09-22T21:47:45.303Z,100563.91
2022-09-22T21:50:13.424Z,100568.81
2022-09-22T21:52:41.677Z,100567.53
2022-09-22T21:55:10.387Z,100566.28
2022-09-22T21:57:38.486Z,100568.97
2022-09-22T22:00:08.473Z,100561.84
2022-09-22T22:02:57.016Z,100551.88
2022-09-22T22:05:27.384Z,100561.03
2022-09-22T22:07:55.954Z,100558.66
2022-09-22T22:10:24.304Z,100558.81
2022-09-22T22:12:52.587Z,100560.72
2022-09-22T22:15:20.721Z,100559.44
2022-09-22T22:17:48.891Z,100560.56
2022-09-22T22:20:17.081Z,100553.00
2022-09-22T22:22:46.865Z,100549.13
2022-09-22T22:25:19.565Z,100543.38
2022-09-22T22:27:47.744Z,100541.44
2022-09-22T22:30:16.028Z,100548.06
2022-09-22T22:32:46.414Z,100547.94
2022-09-22T22:35:14.595Z,100537.31
2022-09-22T22:37:45.794Z,100539.56
2022-09-22T22:40:15.400Z,100546.38
2022-09-22T22:42:43.545Z,100540.50
2022-09-22T22:45:12.340Z,100542.06
2022-09-22T22:47:40.449Z,100545.22
2022-09-22T22:50:10.041Z,100541.13
2022-09-22T22:52:40.237Z,100546.50
2022-09-22T22:55:10.100Z,100543.63
2022-09-22T22:57:39.649Z,100559.44
2022-09-22T23:00:09.178Z,100557.84
2022-09-22T23:02:37.273Z,100556.28
2022-09-22T23:05:05.985Z,100555.91
2022-09-22T23:07:34.222Z,100561.28
2022-09-22T23:10:07.268Z,100555.75
2022-09-22T23:12:36.151Z,100552.41
2022-09-22T23:15:09.856Z,100550.56
2022-09-22T23:17:38.076Z,100560.63
2022-09-22T23:20:08.028Z,100551.44
2022-09-22T23:22:36.188Z,100554.94
2022-09-22T23:25:04.669Z,100557.69
2022-09-22T23:27:33.107Z,100562.41
2022-09-22T23:30:01.187Z,100564.13
2022-09-22T23:32:30.697Z,100569.38
2022-09-22T23:34:58.858Z,100567.31
2022-09-22T23:37:26.954Z,100569.19
2022-09-22T23:39:55.397Z,100564.06
2022-09-22T23:42:24.448Z,100566.16
2022-09-22T23:44:52.911Z,100568.91
2022-09-22T23:47:21.062Z,100566.22
2022-09-22T23:49:50.565Z,100567.00
2022-09-22T23:52:18.702Z,100570.44
2022-09-22T23:54:46.887Z,100568.06
2022-09-22T23:57:15.010Z,100567.75
2022-09-22T23:59:43.136Z,100565.53
